メインページ
METAR-TAF:

METAR-TAF

空港 :

ローマ・フィウミチーノ, イタリア

フィウミチーノ空港

緯度: 41-48N, 経度: 012-14E, 海抜: 2m

現時点の気象観測

当レポートは41分前の05:20(UTC)に作成
南東の風 5kt、から南/南西の間で変化する
気温 23°C
湿度 83%
気圧 1013 hPa
視程10km以上
高度2000ftの雲は散在している

METAR: LIRF 200520Z 13005KT 100V210 9999 SCT020 23/20 Q1013 NOSIG

時間: 08:01 (06:01 UTC)

予報

当レポートは1時間1分前の05:00(UTC)に作成
予報は20日の 06時(UTC)から 21日の 12時(UTC)まで有効
南/南東の風 6kt
視程10km以上
1,500メートル以下は雲なし、積乱雲なし
20日の 09時(UTC)から 20日の 11時(UTC)まで徐々に
南西の風 12kt
20日の 16時(UTC)から 20日の 18時(UTC)まで徐々に
西/北西の風 10kt
20日の 20時(UTC)から 20日の 22時(UTC)まで徐々に
北/北東の風 12kt
21日の 09時(UTC)から 21日の 11時(UTC)まで徐々に
西の風 12kt

TAF: LIRF 200500Z 2006/2112 16006KT CAVOK BECMG 2009/2011 23012KT BECMG 2016/2018 30010KT BECMG 2020/2022 03012KT BECMG 2109/2111 27012KT

4,000以上の空港の気象観測と天気予報(METAR報とTAF報)

利用可能な観測所は地図上に黄色い丸と赤い丸で示す。

丸の上にカーソルを重ねると観測所名を参照できる。

次にクリックすると気象観測と天気予報を参照できる。

マップの切り替え:黒色「×」印の緑ボタンをクリックして拡大、「-」印の緑ボタンをクリックして縮小、緑色の三角印をクリックして隣りの地図に切り替え


METAR-TAF: